createdAt,value
2022-11-26T04:47:56.710Z,5.50
2022-11-26T04:50:59.646Z,5.54
2022-11-26T04:54:03.411Z,5.58
2022-11-26T04:57:07.078Z,5.66
2022-11-26T05:00:11.844Z,5.65
2022-11-26T05:03:16.815Z,5.66
2022-11-26T05:06:20.384Z,5.65
2022-11-26T05:09:26.344Z,5.66
2022-11-26T05:12:29.399Z,5.68
2022-11-26T05:15:32.253Z,5.65
2022-11-26T05:18:37.239Z,5.67
2022-11-26T05:21:40.445Z,5.67
2022-11-26T05:24:43.414Z,5.66
2022-11-26T05:27:46.350Z,5.64
2022-11-26T05:30:49.264Z,5.69
2022-11-26T05:33:53.837Z,5.66
2022-11-26T05:36:57.690Z,5.68
2022-11-26T05:40:00.581Z,5.69
2022-11-26T05:43:03.571Z,5.68
2022-11-26T05:46:07.662Z,5.68
2022-11-26T05:49:12.000Z,5.68
2022-11-26T05:52:14.965Z,5.68
2022-11-26T05:55:18.152Z,5.67
2022-11-26T06:01:58.774Z,5.70
2022-11-26T06:05:03.141Z,5.68
2022-11-26T06:08:22.009Z,5.70
2022-11-26T06:11:24.928Z,5.74
2022-11-26T06:14:28.060Z,5.73
2022-11-26T06:17:30.927Z,5.72
2022-11-26T06:20:35.486Z,5.70
2022-11-26T06:23:38.820Z,5.72
2022-11-26T06:26:41.953Z,5.73
2022-11-26T06:29:45.156Z,5.70
2022-11-26T06:32:48.273Z,5.75
2022-11-26T06:35:52.568Z,5.76
2022-11-26T06:38:55.496Z,5.73
2022-11-26T06:41:58.445Z,5.77
2022-11-26T06:45:01.359Z,5.76
2022-11-26T06:48:04.498Z,5.75
2022-11-26T06:51:10.244Z,5.76
2022-11-26T06:54:13.147Z,5.76
2022-11-26T06:57:16.077Z,5.73
2022-11-26T07:00:19.575Z,5.73
2022-11-26T07:03:24.909Z,5.70
2022-11-26T07:06:33.220Z,5.68
2022-11-26T07:09:36.230Z,5.73
2022-11-26T07:12:39.407Z,5.68
2022-11-26T07:15:42.413Z,5.66
2022-11-26T07:18:49.289Z,5.64
2022-11-26T07:21:54.188Z,5.61
2022-11-26T07:24:57.262Z,5.54
2022-11-26T07:28:00.151Z,5.55
2022-11-26T07:31:04.013Z,5.52
2022-11-26T07:34:06.889Z,5.51
2022-11-26T07:37:11.197Z,5.47
2022-11-26T07:40:15.031Z,5.52
2022-11-26T07:43:18.151Z,5.47
2022-11-26T07:46:25.185Z,5.45
2022-11-26T07:49:28.388Z,5.54
2022-11-26T07:52:32.727Z,5.60
2022-11-26T07:55:35.703Z,5.65
2022-11-26T07:58:38.690Z,5.66
2022-11-26T08:01:41.943Z,5.66
2022-11-26T08:04:45.097Z,5.79
2022-11-26T08:07:49.423Z,6.16
2022-11-26T08:15:17.849Z,6.14
2022-11-26T08:18:24.170Z,6.09
2022-11-26T08:21:27.930Z,6.11
2022-11-26T08:24:36.398Z,6.00
2022-11-26T08:27:40.257Z,6.03
2022-11-26T08:30:52.198Z,6.00
2022-11-26T08:33:58.290Z,6.07
2022-11-26T08:40:29.275Z,6.18
2022-11-26T08:44:08.295Z,6.20
2022-11-26T08:47:02.677Z,6.27
2022-11-26T08:50:15.207Z,6.28
2022-11-26T08:53:34.791Z,6.28
2022-11-26T08:56:39.623Z,6.33
2022-11-26T08:59:46.270Z,6.35
2022-11-26T09:37:34.961Z,6.88
2022-11-26T09:40:55.725Z,6.96
2022-11-26T09:44:16.034Z,7.15
2022-11-26T09:47:26.606Z,6.96
2022-11-26T09:50:35.483Z,7.12
2022-11-26T09:53:45.231Z,7.14
2022-11-26T09:56:51.921Z,7.08
2022-11-26T09:59:57.414Z,7.20
2022-11-26T10:03:02.556Z,7.41
2022-11-26T10:06:09.897Z,7.20
2022-11-26T10:09:37.577Z,7.45
2022-11-26T10:13:29.199Z,7.78
2022-11-26T10:17:56.279Z,7.80
2022-11-26T10:21:26.851Z,7.53
2022-11-26T10:24:52.695Z,7.65
2022-11-26T10:32:28.020Z,7.83
2022-11-26T10:39:59.161Z,8.09
2022-11-26T10:43:43.243Z,8.07
2022-11-26T10:47:00.267Z,8.23
2022-11-26T10:54:32.262Z,7.91
2022-11-26T10:58:00.083Z,7.86
2022-11-26T11:01:17.896Z,7.88
2022-11-26T11:04:40.428Z,7.72
2022-11-26T11:07:56.525Z,7.63
2022-11-26T11:11:44.615Z,7.65
2022-11-26T11:24:08.685Z,8.03
2022-11-26T11:28:26.426Z,7.72
2022-11-26T11:36:51.142Z,7.45
2022-11-26T11:41:06.540Z,7.46
2022-11-26T11:43:43.708Z,7.33
2022-11-26T11:47:24.661Z,7.19
2022-11-26T11:50:34.342Z,7.12
2022-11-26T11:53:45.524Z,7.05
2022-11-26T11:56:56.187Z,7.02
2022-11-26T12:00:13.588Z,6.97
2022-11-26T12:03:38.405Z,6.92
2022-11-26T12:06:51.619Z,6.91
2022-11-26T12:10:06.306Z,6.84
2022-11-26T12:13:15.070Z,6.91
2022-11-26T12:16:21.406Z,7.02
2022-11-26T12:19:35.690Z,7.34
2022-11-26T12:22:44.309Z,7.36
2022-11-26T12:25:52.951Z,7.63
2022-11-26T12:29:03.225Z,7.57
2022-11-26T12:32:14.244Z,7.58
2022-11-26T12:35:26.166Z,7.58
2022-11-26T12:38:33.523Z,7.55
2022-11-26T12:41:44.918Z,7.41
2022-11-26T12:44:52.041Z,7.34
2022-11-26T12:48:01.207Z,7.44
2022-11-26T12:51:14.919Z,7.26
2022-11-26T12:54:23.951Z,7.27
2022-11-26T12:57:34.173Z,7.33
2022-11-26T13:00:38.633Z,7.41
2022-11-26T13:03:42.503Z,7.43
2022-11-26T13:06:57.518Z,7.67
2022-11-26T13:10:19.690Z,7.75
2022-11-26T13:13:30.965Z,7.76
2022-11-26T13:16:40.570Z,7.65
2022-11-26T13:19:48.160Z,7.50
2022-11-26T13:23:03.130Z,7.29
2022-11-26T13:26:36.248Z,7.23
2022-11-26T13:30:06.562Z,7.21
2022-11-26T13:33:35.103Z,7.15
2022-11-26T13:37:06.289Z,7.09
2022-11-26T13:40:53.518Z,7.03
2022-11-26T13:44:19.881Z,6.97
2022-11-26T13:47:28.155Z,6.96
2022-11-26T13:50:37.960Z,6.97
2022-11-26T13:53:44.810Z,7.07
2022-11-26T13:56:49.600Z,6.99
2022-11-26T13:59:55.824Z,7.04
2022-11-26T14:02:59.536Z,7.12
2022-11-26T14:06:10.311Z,7.18
2022-11-26T14:09:49.690Z,7.23
2022-11-26T14:13:12.546Z,7.34
2022-11-26T14:16:15.843Z,7.48
2022-11-26T14:19:18.852Z,7.72
2022-11-26T14:22:30.688Z,7.76
2022-11-26T14:25:40.421Z,7.76
2022-11-26T14:28:43.540Z,7.65
2022-11-26T14:31:52.317Z,7.42
2022-11-26T14:34:56.723Z,7.35
2022-11-26T14:38:00.690Z,7.40
2022-11-26T14:41:05.058Z,7.31
2022-11-26T14:44:09.432Z,7.41
2022-11-26T14:47:17.871Z,7.35
2022-11-26T14:50:23.938Z,7.22
2022-11-26T14:53:30.892Z,7.26
2022-11-26T14:56:42.757Z,7.16
2022-11-26T14:59:59.486Z,6.98
2022-11-26T15:03:04.107Z,6.83
2022-11-26T15:06:07.781Z,6.76
2022-11-26T15:09:16.707Z,6.63
2022-11-26T15:12:23.712Z,6.53
2022-11-26T15:15:26.681Z,6.56
2022-11-26T15:18:32.425Z,6.49
2022-11-26T15:21:35.888Z,6.40
2022-11-26T15:24:40.154Z,6.04
2022-11-26T15:27:54.726Z,6.13
2022-11-26T15:30:59.801Z,6.02
2022-11-26T15:34:03.087Z,5.74
2022-11-26T15:37:06.025Z,5.62
2022-11-26T15:40:21.990Z,5.59
2022-11-26T15:43:30.523Z,5.70
2022-11-26T15:46:36.913Z,5.64
2022-11-26T15:49:42.010Z,5.35
2022-11-26T15:52:47.689Z,5.21
2022-11-26T15:55:51.545Z,5.24
2022-11-26T15:58:59.189Z,5.22
2022-11-26T16:02:12.957Z,5.06
2022-11-26T16:05:24.909Z,4.81
2022-11-26T16:08:31.150Z,4.94
2022-11-26T16:11:36.965Z,4.70
2022-11-26T16:14:41.581Z,4.47
2022-11-26T16:17:45.348Z,4.43
2022-11-26T16:20:48.568Z,4.36
2022-11-26T16:23:58.351Z,4.42
2022-11-26T16:27:03.389Z,4.60
2022-11-26T16:30:16.039Z,4.40
2022-11-26T16:33:18.988Z,4.01
2022-11-26T16:36:24.517Z,4.04
2022-11-26T16:39:30.206Z,3.96
2022-11-26T16:42:33.994Z,4.13
2022-11-26T16:45:38.315Z,3.99
2022-11-26T16:48:42.679Z,3.95
2022-11-26T16:51:45.675Z,3.93
2022-11-26T16:54:49.418Z,3.96
2022-11-26T16:57:56.676Z,4.09
2022-11-26T17:01:02.008Z,4.02
2022-11-26T17:04:04.994Z,4.12
2022-11-26T17:07:10.015Z,4.13
2022-11-26T17:10:15.791Z,4.15
2022-11-26T17:13:20.525Z,4.11
2022-11-26T17:16:26.111Z,4.06
2022-11-26T17:19:29.267Z,4.05
2022-11-26T17:22:32.333Z,3.93
2022-11-26T17:25:35.181Z,3.98
2022-11-26T17:28:38.464Z,4.05
2022-11-26T17:31:42.692Z,4.00
2022-11-26T17:34:46.146Z,4.06
2022-11-26T17:37:49.118Z,4.11
2022-11-26T17:40:52.065Z,4.14
2022-11-26T17:43:55.004Z,4.29
2022-11-26T17:47:16.434Z,4.21
2022-11-26T17:50:23.220Z,4.38
2022-11-26T17:53:26.292Z,4.38
2022-11-26T17:56:29.377Z,4.33
2022-11-26T17:59:32.771Z,4.28
2022-11-26T18:02:37.115Z,4.25
2022-11-26T18:05:42.195Z,4.16
2022-11-26T18:08:46.380Z,4.28
2022-11-26T18:11:52.237Z,4.27
2022-11-26T18:14:56.366Z,4.23
2022-11-26T18:18:00.814Z,4.28
2022-11-26T18:21:03.663Z,4.32
2022-11-26T18:24:08.130Z,4.37
2022-11-26T18:27:11.062Z,4.42
2022-11-26T18:30:14.548Z,4.53
2022-11-26T18:33:18.896Z,4.66
2022-11-26T18:36:21.989Z,4.59
2022-11-26T18:39:25.169Z,4.64
2022-11-26T18:42:43.595Z,4.70
2022-11-26T18:45:46.889Z,4.65
2022-11-26T18:48:52.565Z,4.72
2022-11-26T18:51:56.424Z,4.72
2022-11-26T18:55:00.261Z,4.73
2022-11-26T18:58:07.946Z,4.66
2022-11-26T19:01:15.826Z,4.71
2022-11-26T19:04:20.397Z,4.58
2022-11-26T19:07:23.384Z,4.65
2022-11-26T19:10:26.923Z,4.61
2022-11-26T19:13:30.054Z,4.62
2022-11-26T19:16:35.430Z,4.49
2022-11-26T19:19:40.431Z,4.47
2022-11-26T19:22:45.047Z,4.40
2022-11-26T19:25:48.013Z,4.29
2022-11-26T19:28:52.509Z,4.36
2022-11-26T19:31:55.551Z,4.20
2022-11-26T19:35:05.401Z,4.24
2022-11-26T19:38:08.915Z,4.16
2022-11-26T19:41:13.478Z,4.01
2022-11-26T19:44:16.494Z,4.10
2022-11-26T19:47:19.432Z,3.93
2022-11-26T19:50:23.847Z,3.81
2022-11-26T19:53:26.827Z,3.73
2022-11-26T19:56:31.815Z,3.62
2022-11-26T19:59:35.001Z,3.59
2022-11-26T20:02:38.046Z,3.54
2022-11-26T20:05:42.690Z,3.47
2022-11-26T20:08:46.769Z,3.40
2022-11-26T20:11:49.886Z,3.33
2022-11-26T20:14:53.324Z,3.27
2022-11-26T20:17:56.339Z,3.12
2022-11-26T20:21:02.037Z,3.02
2022-11-26T20:24:07.685Z,3.01
2022-11-26T20:27:10.547Z,2.91
2022-11-26T20:30:14.100Z,2.87
2022-11-26T20:33:18.996Z,2.82
2022-11-26T20:36:24.306Z,2.73
2022-11-26T20:39:28.706Z,2.66
2022-11-26T20:42:33.406Z,2.64
2022-11-26T20:45:36.675Z,2.65
2022-11-26T20:48:41.577Z,2.51
2022-11-26T20:51:45.885Z,2.53
2022-11-26T20:54:53.465Z,2.41
2022-11-26T20:57:57.065Z,2.37
2022-11-26T21:01:01.476Z,2.38
2022-11-26T21:04:04.594Z,2.47
2022-11-26T21:07:08.974Z,2.37
2022-11-26T21:10:13.703Z,2.33
2022-11-26T21:13:18.595Z,2.28
2022-11-26T21:16:22.492Z,2.26
2022-11-26T21:19:25.655Z,2.21
2022-11-26T21:22:29.985Z,2.18
2022-11-26T21:25:32.967Z,2.18
2022-11-26T21:28:36.565Z,2.16
2022-11-26T21:31:39.599Z,2.18
2022-11-26T21:34:42.549Z,2.18
2022-11-26T21:37:46.851Z,2.16
2022-11-26T21:40:49.729Z,2.16
2022-11-26T21:43:53.092Z,2.18
2022-11-26T21:46:57.143Z,2.18
2022-11-26T21:50:00.066Z,2.23
2022-11-26T21:53:04.415Z,2.23
2022-11-26T21:56:08.505Z,2.27
2022-11-26T21:59:11.594Z,2.28
2022-11-26T22:02:14.642Z,2.37
2022-11-26T22:05:17.674Z,2.40
2022-11-26T22:08:22.025Z,2.38
2022-11-26T22:11:26.954Z,2.46
2022-11-26T22:14:30.048Z,2.43
2022-11-26T22:17:33.079Z,2.34
2022-11-26T22:20:36.168Z,2.36
2022-11-26T22:23:40.480Z,2.27
2022-11-26T22:26:43.873Z,2.17
2022-11-26T22:29:46.734Z,2.13
2022-11-26T22:32:49.555Z,2.07
2022-11-26T22:35:52.347Z,2.00
2022-11-26T22:38:57.085Z,1.95
2022-11-26T22:42:00.145Z,1.91
2022-11-26T22:45:03.101Z,1.89
2022-11-26T22:48:06.914Z,1.91
2022-11-26T22:51:10.325Z,1.91
2022-11-26T22:54:17.971Z,1.86
2022-11-26T22:57:25.129Z,1.77
2022-11-26T23:00:49.247Z,1.69
2022-11-26T23:03:53.149Z,1.76
2022-11-26T23:06:56.146Z,1.81
2022-11-26T23:10:00.505Z,1.82
2022-11-26T23:13:03.736Z,1.83
2022-11-26T23:16:09.175Z,1.73
2022-11-26T23:19:14.980Z,1.79
2022-11-26T23:22:17.880Z,1.66
2022-11-26T23:25:22.229Z,1.57
2022-11-26T23:28:25.161Z,1.52
2022-11-26T23:31:30.481Z,1.39
2022-11-26T23:34:33.530Z,1.33
2022-11-26T23:37:39.368Z,1.18
2022-11-26T23:40:43.657Z,1.20
2022-11-26T23:43:46.809Z,1.16
2022-11-26T23:46:49.649Z,1.14
2022-11-26T23:49:52.491Z,1.20
2022-11-26T23:52:55.395Z,1.14
2022-11-26T23:56:04.285Z,1.20
2022-11-26T23:59:07.275Z,1.08
